Time;durP1;ratioP1;P1;durP2;ratioP2;P2;SDS_P1;SDS_P2;PMS_P1;PMS_P2;Temp;Humidity;BMP_temperature;BMP_pressure;BME280_temperature;BME280_humidity;BME280_pressure;Samples;Min_cycle;Max_cycle;Signal;HPM_P1;HPM_P2
2023/08/21 00:00:42;;;;;;;;;;;;;;;23.34;47.46;102213.09;4821571;29;119939;-75
2023/08/21 00:03:09;;;;;;;;;;;;;;;23.32;47.46;102217.78;4834390;29;124134;-75
2023/08/21 00:05:36;;;;;;;;;;;;;;;23.30;47.52;102227.81;4822617;29;124538;-75
2023/08/21 00:08:03;;;;;;;;;;;;;;;23.29;47.50;102228.81;4823325;29;119168;-75
2023/08/21 00:10:31;;;;;;;;;;;;;;;23.27;47.59;102214.56;4824894;29;119339;-75
2023/08/21 00:12:58;;;;;;;;;;;;;;;23.26;47.79;102223.63;4833995;29;123460;-75
2023/08/21 00:15:25;;;;;;;;;;;;;;;23.26;47.58;102215.50;4825950;29;124301;-75
2023/08/21 00:17:52;;;;;;;;;;;;;;;23.26;47.71;102220.91;4826053;29;119984;-75
2023/08/21 00:20:19;;;;;;;;;;;;;;;23.24;47.80;102220.19;4832643;29;117737;-75
2023/08/21 00:22:46;;;;;;;;;;;;;;;23.24;47.60;102228.28;4824431;29;124120;-75
2023/08/21 00:25:13;;;;;;;;;;;;;;;23.24;47.66;102209.38;4820045;29;124016;-75
2023/08/21 00:27:40;;;;;;;;;;;;;;;23.23;47.77;102208.50;4843467;28;120757;-75
2023/08/21 00:30:07;;;;;;;;;;;;;;;23.24;47.82;102209.38;4829175;29;119008;-75
2023/08/21 00:32:35;;;;;;;;;;;;;;;23.21;47.62;102215.03;4834780;29;124564;-75
2023/08/21 00:35:02;;;;;;;;;;;;;;;23.17;47.78;102213.53;4834305;29;123477;-75
2023/08/21 00:37:29;;;;;;;;;;;;;;;23.12;47.83;102217.44;4830670;29;119250;-75
2023/08/21 00:39:56;;;;;;;;;;;;;;;23.08;47.58;102221.38;4826888;29;119434;-75
2023/08/21 00:42:23;;;;;;;;;;;;;;;23.04;47.82;102217.19;4836717;29;123417;-75
2023/08/21 00:44:50;;;;;;;;;;;;;;;23.00;47.86;102217.47;4831780;29;124589;-75
2023/08/21 00:47:19;;;;;;;;;;;;;;;22.94;47.61;102213.41;4826689;29;120477;-74
2023/08/21 00:49:47;;;;;;;;;;;;;;;22.88;47.74;102219.28;4845694;29;119049;-75
2023/08/21 00:52:14;;;;;;;;;;;;;;;22.83;47.89;102221.44;4832824;29;124948;-75
2023/08/21 00:54:41;;;;;;;;;;;;;;;22.79;47.90;102209.16;4832758;29;123558;-75
2023/08/21 00:57:09;;;;;;;;;;;;;;;22.76;47.87;102212.13;4842350;29;119039;-75
2023/08/21 00:59:37;;;;;;;;;;;;;;;22.72;48.00;102209.63;4825487;29;119371;-75
2023/08/21 01:02:04;;;;;;;;;;;;;;;22.71;48.15;102213.28;4828264;29;124584;-75
2023/08/21 01:04:31;;;;;;;;;;;;;;;22.71;48.17;102217.84;4826190;29;124199;-75
2023/08/21 01:06:58;;;;;;;;;;;;;;;22.70;48.11;102217.00;4826488;29;118419;-75
2023/08/21 01:09:42;;;;;;;;;;;;;;;22.69;48.14;102204.44;4822336;29;118267;-75
2023/08/21 01:12:15;;;;;;;;;;;;;;;22.70;48.11;102198.09;4843834;29;123608;-75
2023/08/21 01:14:42;;;;;;;;;;;;;;;22.70;48.29;102192.69;4826037;29;123828;-75
2023/08/21 01:17:12;;;;;;;;;;;;;;;22.72;48.28;102203.38;4845776;28;118921;-75
2023/08/21 01:19:43;;;;;;;;;;;;;;;22.72;48.26;102198.81;4823949;29;118586;-75
2023/08/21 01:22:11;;;;;;;;;;;;;;;22.73;48.22;102199.69;4823387;29;124358;-75
2023/08/21 01:24:38;;;;;;;;;;;;;;;22.72;48.20;102198.81;4844428;28;123541;-75
2023/08/21 01:27:05;;;;;;;;;;;;;;;22.72;48.07;102203.38;4834961;29;118647;-75
2023/08/21 01:29:33;;;;;;;;;;;;;;;22.71;48.10;102207.88;4826505;29;119220;-75
2023/08/21 01:32:03;;;;;;;;;;;;;;;22.69;48.26;102201.75;4848390;28;123951;-75
2023/08/21 01:34:33;;;;;;;;;;;;;;;22.68;48.14;102208.13;4825714;29;124450;-75
2023/08/21 01:37:00;;;;;;;;;;;;;;;22.66;48.18;102204.69;4829573;29;120303;-75
2023/08/21 01:39:28;;;;;;;;;;;;;;;22.64;48.19;102209.34;4830150;29;118934;-75
2023/08/21 01:41:56;;;;;;;;;;;;;;;22.61;48.28;102201.47;4825392;29;123185;-75
2023/08/21 01:44:23;;;;;;;;;;;;;;;22.57;48.18;102210.78;4821333;29;123793;-75
2023/08/21 01:46:50;;;;;;;;;;;;;;;22.53;48.25;102198.50;4827084;29;121401;-75
2023/08/21 01:49:18;;;;;;;;;;;;;;;22.51;48.36;102189.66;4826456;29;119160;-75
2023/08/21 01:51:46;;;;;;;;;;;;;;;22.49;48.38;102197.84;4813878;29;125189;-75
2023/08/21 01:54:13;;;;;;;;;;;;;;;22.48;48.26;102195.25;4823903;29;124982;-75
2023/08/21 01:56:40;;;;;;;;;;;;;;;22.47;48.35;102204.31;4819293;29;119250;-75
2023/08/21 01:59:07;;;;;;;;;;;;;;;22.45;48.49;102195.47;4832422;29;119148;-75
2023/08/21 02:01:34;;;;;;;;;;;;;;;22.44;48.56;102199.16;4822440;29;124230;-75
2023/08/21 02:04:01;;;;;;;;;;;;;;;22.43;48.49;102198.28;4848170;28;123298;-75
2023/08/21 02:06:28;;;;;;;;;;;;;;;22.43;48.52;102197.44;4829916;29;118707;-75
2023/08/21 02:08:55;;;;;;;;;;;;;;;22.43;48.50;102194.72;4840769;29;118001;-75
2023/08/21 02:11:22;;;;;;;;;;;;;;;22.42;48.49;102195.72;4822702;29;125012;-75
2023/08/21 02:13:51;;;;;;;;;;;;;;;22.41;48.65;102193.97;4844806;29;125863;-75
2023/08/21 02:16:18;;;;;;;;;;;;;;;22.38;48.62;102192.38;4832802;29;119833;-75
2023/08/21 02:18:44;;;;;;;;;;;;;;;22.37;48.53;102193.34;4816358;29;118254;-75
2023/08/21 02:21:11;;;;;;;;;;;;;;;22.35;48.55;102196.16;4818486;29;123261;-75
2023/08/21 02:23:38;;;;;;;;;;;;;;;22.33;48.51;102202.66;4809440;29;123068;-75
2023/08/21 02:26:05;;;;;;;;;;;;;;;22.29;48.43;102193.06;4826120;29;120572;-75
2023/08/21 02:28:32;;;;;;;;;;;;;;;22.23;48.47;102197.03;4824277;29;119748;-75
2023/08/21 02:30:59;;;;;;;;;;;;;;;22.20;48.67;102191.00;4832441;29;124750;-75
2023/08/21 02:33:26;;;;;;;;;;;;;;;22.16;48.64;102198.44;4830257;29;123458;-75
2023/08/21 02:35:55;;;;;;;;;;;;;;;22.12;48.57;102188.84;4831855;29;119754;-75
2023/08/21 02:38:22;;;;;;;;;;;;;;;22.08;48.55;102193.63;4832010;28;117930;-75
2023/08/21 02:40:49;;;;;;;;;;;;;;;22.05;48.72;102192.97;4833256;29;123902;-75
2023/08/21 02:43:16;;;;;;;;;;;;;;;22.02;48.72;102193.19;4824843;29;124938;-75
2023/08/21 02:45:43;;;;;;;;;;;;;;;21.97;48.61;102197.06;4838609;29;119321;-75
2023/08/21 02:48:10;;;;;;;;;;;;;;;21.94;48.76;102205.41;4836166;29;118012;-75
2023/08/21 02:50:37;;;;;;;;;;;;;;;21.91;48.74;102200.22;4829566;29;124171;-75
2023/08/21 02:53:04;;;;;;;;;;;;;;;21.87;48.75;102198.72;4846320;29;124787;-75
2023/08/21 02:55:31;;;;;;;;;;;;;;;21.84;48.81;102190.84;4825498;29;119768;-75
2023/08/21 02:57:58;;;;;;;;;;;;;;;21.82;48.83;102192.78;4826011;29;117110;-75
2023/08/21 03:00:25;;;;;;;;;;;;;;;21.80;48.81;102189.34;4828932;29;124483;-75
2023/08/21 03:02:52;;;;;;;;;;;;;;;21.77;48.81;102206.63;4846337;29;123180;-75
2023/08/21 03:05:19;;;;;;;;;;;;;;;21.75;48.85;102191.50;4829575;29;120333;-75
2023/08/21 03:07:46;;;;;;;;;;;;;;;21.72;48.89;102191.72;4822131;29;118930;-75
2023/08/21 03:10:14;;;;;;;;;;;;;;;21.69;48.85;102191.94;4829687;29;123277;-75
2023/08/21 03:12:40;;;;;;;;;;;;;;;21.68;48.96;102200.97;4841117;29;125640;-75
2023/08/21 03:15:08;;;;;;;;;;;;;;;21.66;49.00;102197.53;4831356;29;119419;-75
2023/08/21 03:17:35;;;;;;;;;;;;;;;21.65;48.95;102206.63;4833481;29;119243;-75
2023/08/21 03:20:04;;;;;;;;;;;;;;;21.63;48.89;102197.78;4826081;29;124179;-75
2023/08/21 03:22:31;;;;;;;;;;;;;;;21.59;49.00;102202.50;4826630;29;124269;-75
2023/08/21 03:24:58;;;;;;;;;;;;;;;21.57;48.96;102205.31;4838525;29;119937;-75
2023/08/21 03:27:26;;;;;;;;;;;;;;;21.55;49.17;102201.88;4851449;29;117911;-75
2023/08/21 03:29:54;;;;;;;;;;;;;;;21.52;49.09;102199.38;4835788;29;119258;-75
2023/08/21 03:32:21;;;;;;;;;;;;;;;21.51;49.07;102200.34;4836109;29;123283;-75
2023/08/21 03:34:48;;;;;;;;;;;;;;;21.49;49.16;102199.59;4837313;29;120127;-75
2023/08/21 03:37:16;;;;;;;;;;;;;;;21.48;49.09;102203.25;4850946;28;119780;-75
2023/08/21 03:39:44;;;;;;;;;;;;;;;21.45;49.07;102195.38;4845932;29;123944;-75
2023/08/21 03:42:11;;;;;;;;;;;;;;;21.45;49.17;102195.38;4836857;29;123509;-75
2023/08/21 03:44:39;;;;;;;;;;;;;;;21.44;49.20;102196.34;4850714;29;118937;-74
2023/08/21 03:47:06;;;;;;;;;;;;;;;21.42;49.17;102190.19;4857603;29;117990;-75
2023/08/21 03:49:40;;;;;;;;;;;;;;;21.40;49.27;102192.13;4830577;29;125432;-75
2023/08/21 03:52:07;;;;;;;;;;;;;;;21.37;49.27;102197.72;4853791;28;122777;-75
2023/08/21 03:54:35;;;;;;;;;;;;;;;21.35;49.28;102200.50;4847071;29;118362;-75
2023/08/21 03:57:02;;;;;;;;;;;;;;;21.32;49.12;102189.06;4841820;29;119279;-75
2023/08/21 03:59:29;;;;;;;;;;;;;;;21.29;49.03;102194.69;4832680;29;124285;-75
2023/08/21 04:01:56;;;;;;;;;;;;;;;21.26;49.22;102198.44;4837793;29;123558;-75
2023/08/21 04:04:23;;;;;;;;;;;;;;;21.20;49.39;102191.66;4837968;29;119976;-75
2023/08/21 04:06:50;;;;;;;;;;;;;;;21.18;49.34;102193.59;4822460;29;119120;-75
2023/08/21 04:09:17;;;;;;;;;;;;;;;21.16;49.33;102195.53;4831791;29;124968;-75
2023/08/21 04:11:44;;;;;;;;;;;;;;;21.16;49.37;102200.91;4837499;29;123927;-75
2023/08/21 04:14:11;;;;;;;;;;;;;;;21.15;49.34;102193.81;4837867;29;120069;-75
2023/08/21 04:16:38;;;;;;;;;;;;;;;21.15;49.39;102198.31;4834962;29;118282;-75
2023/08/21 04:19:05;;;;;;;;;;;;;;;21.15;49.48;102204.59;4832431;29;123911;-75
2023/08/21 04:21:32;;;;;;;;;;;;;;;21.15;49.48;102199.22;4831328;29;124119;-75
2023/08/21 04:23:59;;;;;;;;;;;;;;;21.14;49.44;102192.06;4827384;29;120088;-75
2023/08/21 04:26:26;;;;;;;;;;;;;;;21.13;49.34;102195.72;4835326;29;117863;-75
2023/08/21 04:28:53;;;;;;;;;;;;;;;21.12;49.45;102194.00;4833317;29;124950;-74
2023/08/21 04:31:20;;;;;;;;;;;;;;;21.10;49.50;102193.25;4834680;29;124759;-75
2023/08/21 04:33:48;;;;;;;;;;;;;;;21.09;49.45;102199.59;4826841;29;121551;-75
2023/08/21 04:36:16;;;;;;;;;;;;;;;21.08;49.62;102202.41;4817674;29;117786;-75
2023/08/21 04:38:46;;;;;;;;;;;;;;;21.06;49.48;102198.94;4829439;29;123409;-75
2023/08/21 04:41:13;;;;;;;;;;;;;;;21.02;49.56;102209.09;4833645;29;123160;-75
2023/08/21 04:43:43;;;;;;;;;;;;;;;21.01;49.63;102204.66;4832920;29;120484;-75
2023/08/21 04:46:10;;;;;;;;;;;;;;;20.98;49.61;102212.94;4833743;29;120030;-75
2023/08/21 04:48:40;;;;;;;;;;;;;;;20.97;49.72;102209.38;4846898;28;123478;-75
2023/08/21 04:51:07;;;;;;;;;;;;;;;20.98;49.75;102212.94;4841163;28;123547;-75
2023/08/21 04:53:34;;;;;;;;;;;;;;;20.97;49.76;102213.91;4833393;29;120146;-74
2023/08/21 04:56:03;;;;;;;;;;;;;;;20.97;49.70;102217.47;4845658;29;118922;-75
2023/08/21 04:58:32;;;;;;;;;;;;;;;20.97;49.75;102224.69;4832117;29;123307;-75
2023/08/21 05:00:59;;;;;;;;;;;;;;;20.97;49.76;102222.00;4833169;29;126007;-75
2023/08/21 05:03:27;;;;;;;;;;;;;;;20.97;49.82;102224.69;4832234;29;120927;-75
2023/08/21 05:05:55;;;;;;;;;;;;;;;20.99;49.81;102230.84;4833726;28;118329;-75
2023/08/21 05:08:23;;;;;;;;;;;;;;;21.00;50.00;102224.47;4844240;29;123422;-75
2023/08/21 05:10:54;;;;;;;;;;;;;;;21.03;50.01;102226.97;4846946;29;123782;-75
2023/08/21 05:13:21;;;;;;;;;;;;;;;21.06;49.99;102221.38;4823208;29;118721;-75
2023/08/21 05:15:56;;;;;;;;;;;;;;;21.09;50.06;102231.94;4816023;29;117914;-75
2023/08/21 05:18:24;;;;;;;;;;;;;;;21.14;50.02;102224.41;4829957;29;122430;-75
2023/08/21 05:20:53;;;;;;;;;;;;;;;21.17;50.02;102235.00;4838468;28;125120;-75
2023/08/21 05:23:20;;;;;;;;;;;;;;;21.22;50.15;102231.13;4826074;29;120389;-75
2023/08/21 05:25:49;;;;;;;;;;;;;;;21.26;50.19;102232.63;4826428;29;117869;-75
2023/08/21 05:28:16;;;;;;;;;;;;;;;21.31;50.19;102238.56;4833660;29;123426;-75
2023/08/21 05:30:46;;;;;;;;;;;;;;;21.35;50.22;102232.84;4828621;29;124166;-75
2023/08/21 05:33:13;;;;;;;;;;;;;;;21.40;50.25;102232.56;4822947;29;119025;-75
2023/08/21 05:35:41;;;;;;;;;;;;;;;21.46;50.18;102240.25;4847960;29;120427;-74
2023/08/21 05:38:09;;;;;;;;;;;;;;;21.51;50.32;102238.09;4830753;29;123616;-75
2023/08/21 05:40:36;;;;;;;;;;;;;;;21.58;50.26;102244.75;4831900;29;124390;-75
2023/08/21 05:43:03;;;;;;;;;;;;;;;21.63;50.35;102246.31;4832013;29;120273;-75
2023/08/21 05:45:31;;;;;;;;;;;;;;;21.68;50.27;102249.53;4848365;29;119385;-75
2023/08/21 05:47:58;;;;;;;;;;;;;;;21.74;50.31;102254.50;4817082;29;123709;-75
2023/08/21 05:50:25;;;;;;;;;;;;;;;21.82;50.37;102256.66;4848440;29;124111;-75
2023/08/21 05:52:54;;;;;;;;;;;;;;;21.91;50.31;102259.56;4824872;29;119666;-75
2023/08/21 05:55:21;;;;;;;;;;;;;;;22.01;50.36;102256.22;4809872;29;117984;-75
2023/08/21 05:57:48;;;;;;;;;;;;;;;22.08;50.35;102257.53;4832605;29;123814;-75
2023/08/21 06:00:16;;;;;;;;;;;;;;;22.17;50.38;102262.25;4833256;29;125721;-76
2023/08/21 06:02:43;;;;;;;;;;;;;;;22.25;50.36;102265.28;4834372;29;119386;-76
2023/08/21 06:05:27;;;;;;;;;;;;;;;22.33;50.34;102268.28;4832657;29;119835;-75
2023/08/21 06:07:55;;;;;;;;;;;;;;;22.42;50.33;102257.81;4831679;29;125295;-75
2023/08/21 06:10:22;;;;;;;;;;;;;;;22.49;50.23;102251.84;4833808;29;124306;-75
2023/08/21 06:12:51;;;;;;;;;;;;;;;22.56;50.34;102263.06;4833406;29;118702;-75
2023/08/21 06:15:18;;;;;;;;;;;;;;;22.62;50.36;102262.63;4831926;29;118734;-75
2023/08/21 06:17:44;;;;;;;;;;;;;;;22.68;50.25;102262.16;4823627;29;124201;-75
2023/08/21 06:20:13;;;;;;;;;;;;;;;22.74;50.36;102264.41;4832720;29;125129;-75
2023/08/21 06:22:40;;;;;;;;;;;;;;;22.81;50.41;102270.22;4830162;29;119711;-76
2023/08/21 06:25:08;;;;;;;;;;;;;;;22.88;50.36;102268.75;4826396;29;118075;-76
2023/08/21 06:27:35;;;;;;;;;;;;;;;22.96;50.27;102264.63;4830465;29;125265;-77
2023/08/21 06:30:22;;;;;;;;;;;;;;;23.04;50.36;102268.53;4827261;29;124246;-76
2023/08/21 06:32:49;;;;;;;;;;;;;;;23.12;50.23;102266.09;4832702;29;120093;-76
2023/08/21 06:35:17;;;;;;;;;;;;;;;23.21;50.43;102263.69;4840143;28;119824;-77
2023/08/21 06:37:44;;;;;;;;;;;;;;;23.29;50.43;102266.66;4849197;29;124002;-76
2023/08/21 06:40:11;;;;;;;;;;;;;;;23.37;50.40;102275.03;4847245;28;126126;-76
2023/08/21 06:42:38;;;;;;;;;;;;;;;23.45;50.22;102282.56;4831548;28;119295;-76
2023/08/21 06:45:06;;;;;;;;;;;;;;;23.48;50.38;102280.47;4847487;28;120237;-76
2023/08/21 06:47:33;;;;;;;;;;;;;;;23.55;50.29;102277.31;4823127;29;124431;-79
2023/08/21 06:50:00;;;;;;;;;;;;;;;23.61;50.39;102274.13;4841999;29;125435;-76
2023/08/21 06:52:27;;;;;;;;;;;;;;;23.64;50.30;102271.16;4829546;29;119541;-76
2023/08/21 06:54:54;;;;;;;;;;;;;;;23.68;50.21;102272.69;4826635;29;118596;-75
2023/08/21 06:57:22;;;;;;;;;;;;;;;23.73;50.21;102275.84;4826550;29;125829;-76
2023/08/21 06:59:49;;;;;;;;;;;;;;;23.78;50.34;102268.25;4831663;29;124187;-76
2023/08/21 07:02:15;;;;;;;;;;;;;;;23.83;50.34;102271.50;4836857;29;119907;-75
2023/08/21 07:04:42;;;;;;;;;;;;;;;23.89;50.24;102281.81;4834116;28;117658;-76
2023/08/21 07:07:09;;;;;;;;;;;;;;;23.96;50.11;102281.34;4827526;29;124378;-76
2023/08/21 07:09:36;;;;;;;;;;;;;;;23.99;50.22;102281.09;4823631;29;123310;-75
2023/08/21 07:12:03;;;;;;;;;;;;;;;24.04;50.27;102281.59;4820473;29;119503;-76
2023/08/21 07:14:30;;;;;;;;;;;;;;;24.10;50.37;102278.41;4827676;29;118041;-76
2023/08/21 07:16:59;;;;;;;;;;;;;;;24.20;50.23;102284.78;4830749;29;123720;-75
2023/08/21 07:19:27;;;;;;;;;;;;;;;24.29;50.44;102278.63;4815185;29;123866;-75
2023/08/21 07:21:54;;;;;;;;;;;;;;;24.39;50.29;102284.19;4820288;29;122656;-75
2023/08/21 07:24:21;;;;;;;;;;;;;;;24.52;50.17;102284.06;4821625;29;118907;-75
2023/08/21 07:26:48;;;;;;;;;;;;;;;24.67;50.29;102281.94;4827241;29;124104;-75
2023/08/21 07:29:14;;;;;;;;;;;;;;;24.81;50.44;102281.69;4838502;29;124127;-75
2023/08/21 07:31:42;;;;;;;;;;;;;;;24.97;50.32;102283.97;4824026;29;118672;-75
2023/08/21 07:34:09;;;;;;;;;;;;;;;25.11;50.28;102290.06;4840403;29;119588;-75
2023/08/21 07:36:36;;;;;;;;;;;;;;;25.25;50.24;102281.69;4822100;29;124866;-75
2023/08/21 07:39:03;;;;;;;;;;;;;;;25.39;50.17;102278.66;4827623;29;124004;-75
2023/08/21 07:41:30;;;;;;;;;;;;;;;25.51;50.28;102286.75;4826875;29;120379;-75
2023/08/21 07:43:57;;;;;;;;;;;;;;;25.61;50.33;102283.06;4838689;29;118429;-75
2023/08/21 07:46:24;;;;;;;;;;;;;;;25.75;50.08;102279.19;4827164;29;123516;-75
2023/08/21 07:48:52;;;;;;;;;;;;;;;25.90;50.34;102286.97;4829207;29;124239;-76
2023/08/21 07:51:19;;;;;;;;;;;;;;;26.07;50.34;102282.78;4831397;29;118912;-75
2023/08/21 07:53:46;;;;;;;;;;;;;;;26.26;50.16;102284.72;4820853;29;118632;-75
2023/08/21 07:56:13;;;;;;;;;;;;;;;26.44;49.97;102285.81;4819052;29;125120;-76
2023/08/21 07:58:40;;;;;;;;;;;;;;;26.63;49.89;102295.06;4832625;29;123905;-75
2023/08/21 08:01:07;;;;;;;;;;;;;;;26.75;49.90;102283.06;4831422;29;119792;-75
2023/08/21 08:03:34;;;;;;;;;;;;;;;26.91;49.74;102293.38;4824744;29;117542;-75
2023/08/21 08:06:01;;;;;;;;;;;;;;;27.05;49.80;102287.53;4830830;29;124381;-75
2023/08/21 08:08:29;;;;;;;;;;;;;;;27.20;49.62;102287.97;4835102;29;124565;-75
2023/08/21 08:11:00;;;;;;;;;;;;;;;27.30;49.40;102286.13;4831309;29;120166;-75
2023/08/21 08:13:26;;;;;;;;;;;;;;;27.37;49.41;102289.16;4829242;29;120038;-76
2023/08/21 08:15:53;;;;;;;;;;;;;;;27.46;49.19;102292.84;4834391;29;123571;-75
2023/08/21 08:18:20;;;;;;;;;;;;;;;27.55;49.07;102297.41;4830092;29;124332;-75
2023/08/21 08:20:47;;;;;;;;;;;;;;;27.60;48.97;102289.69;4835538;29;119287;-75
2023/08/21 08:23:14;;;;;;;;;;;;;;;27.68;48.93;102292.53;4831774;29;118886;-75
2023/08/21 08:25:41;;;;;;;;;;;;;;;27.74;49.08;102291.94;4849007;29;124911;-76
2023/08/21 08:28:08;;;;;;;;;;;;;;;27.79;48.79;102298.81;4829250;28;123824;-75
2023/08/21 08:30:35;;;;;;;;;;;;;;;27.86;48.75;102289.03;4838782;29;117529;-75
2023/08/21 08:33:02;;;;;;;;;;;;;;;27.90;48.75;102293.25;4826108;29;119731;-76
2023/08/21 08:35:29;;;;;;;;;;;;;;;27.93;48.90;102290.19;4830448;29;124886;-75
2023/08/21 08:37:56;;;;;;;;;;;;;;;27.96;48.62;102300.81;4828730;29;124453;-75
2023/08/21 08:40:23;;;;;;;;;;;;;;;27.99;48.60;102292.34;4823873;29;119455;-75
2023/08/21 08:42:50;;;;;;;;;;;;;;;28.07;48.64;102287.00;4824374;29;119165;-75
2023/08/21 08:45:23;;;;;;;;;;;;;;;28.16;48.54;102282.50;4819909;29;124599;-75
2023/08/21 08:47:50;;;;;;;;;;;;;;;28.24;48.72;102287.25;4814289;29;123978;-75
2023/08/21 08:50:17;;;;;;;;;;;;;;;28.29;48.56;102284.91;4831506;29;119757;-75
2023/08/21 08:52:44;;;;;;;;;;;;;;;28.33;48.58;102286.31;4824036;29;119665;-75
2023/08/21 08:55:11;;;;;;;;;;;;;;;28.40;48.64;102290.16;4824180;29;123635;-75
2023/08/21 08:57:38;;;;;;;;;;;;;;;28.45;48.17;102296.00;4842000;29;123187;-76
2023/08/21 09:00:05;;;;;;;;;;;;;;;28.50;48.43;102301.88;4846495;29;119826;-75
2023/08/21 09:02:32;;;;;;;;;;;;;;;28.56;48.31;102297.72;4832575;29;119415;-75
2023/08/21 09:04:59;;;;;;;;;;;;;;;28.56;48.09;102302.28;4830621;29;124525;-76
2023/08/21 09:07:28;;;;;;;;;;;;;;;28.52;48.01;102302.63;4830925;29;124060;-75
2023/08/21 09:09:55;;;;;;;;;;;;;;;28.49;47.91;102297.41;4829903;29;120454;-76
2023/08/21 09:12:22;;;;;;;;;;;;;;;28.51;48.00;102289.94;4830797;29;118810;-75
2023/08/21 09:14:49;;;;;;;;;;;;;;;28.59;48.16;102293.81;4816208;29;124307;-75
2023/08/21 09:17:16;;;;;;;;;;;;;;;28.70;48.23;102293.59;4831655;29;123388;-74
2023/08/21 09:19:43;;;;;;;;;;;;;;;28.75;48.22;102288.56;4822714;29;118708;-76
2023/08/21 09:22:15;;;;;;;;;;;;;;;28.81;47.89;102287.94;4825390;29;118030;-75
2023/08/21 09:25:00;;;;;;;;;;;;;;;28.82;47.79;102286.94;4826221;29;124012;-75
2023/08/21 09:27:26;;;;;;;;;;;;;;;28.85;47.99;102289.34;4843410;28;123119;-75
2023/08/21 09:29:53;;;;;;;;;;;;;;;28.91;47.95;102280.56;4827384;29;118733;-75
2023/08/21 09:32:20;;;;;;;;;;;;;;;28.98;47.84;102274.47;4827091;29;118158;-75
2023/08/21 09:34:47;;;;;;;;;;;;;;;29.03;47.88;102283.06;4832542;29;122805;-75
2023/08/21 09:37:17;;;;;;;;;;;;;;;29.09;47.77;102283.28;4828100;29;124693;-75
2023/08/21 09:39:45;;;;;;;;;;;;;;;29.17;47.77;102284.41;4830834;29;119715;-75
2023/08/21 09:42:12;;;;;;;;;;;;;;;29.21;47.61;102286.63;4822891;29;118953;-76
2023/08/21 09:44:41;;;;;;;;;;;;;;;29.26;47.69;102273.38;4825009;29;124719;-75
2023/08/21 09:47:11;;;;;;;;;;;;;;;29.27;47.58;102274.25;4820193;29;123995;-75
2023/08/21 09:49:39;;;;;;;;;;;;;;;29.34;47.57;102274.47;4822639;29;118971;-75
2023/08/21 09:52:07;;;;;;;;;;;;;;;29.43;47.63;102276.25;4823380;29;119217;-75
2023/08/21 09:54:34;;;;;;;;;;;;;;;29.58;47.76;102285.59;4833184;29;124496;-75
2023/08/21 09:57:04;;;;;;;;;;;;;;;29.68;47.57;102278.13;4822745;29;124242;-75
2023/08/21 09:59:31;;;;;;;;;;;;;;;29.73;47.54;102279.56;4839770;29;120096;-75
2023/08/21 10:01:59;;;;;;;;;;;;;;;29.72;47.35;102277.81;4830070;29;118882;-75
2023/08/21 10:04:31;;;;;;;;;;;;;;;29.72;47.18;102277.81;4830449;29;124213;-76
2023/08/21 10:07:00;;;;;;;;;;;;;;;29.69;47.21;102273.56;4843737;29;124920;-76
2023/08/21 10:09:28;;;;;;;;;;;;;;;29.73;47.00;102279.56;4839039;29;118551;-75
2023/08/21 10:11:55;;;;;;;;;;;;;;;29.76;47.05;102265.59;4830663;29;118397;-75
2023/08/21 10:14:24;;;;;;;;;;;;;;;29.83;47.32;102263.94;4833640;29;124551;-75
2023/08/21 10:16:54;;;;;;;;;;;;;;;29.90;47.27;102259.53;4829311;29;125000;-75
2023/08/21 10:19:21;;;;;;;;;;;;;;;29.98;47.40;102262.31;4832805;29;118979;-75
2023/08/21 10:21:51;;;;;;;;;;;;;;;30.06;47.30;102259.63;4824751;29;118437;-75
2023/08/21 10:24:28;;;;;;;;;;;;;;;30.15;47.19;102257.78;4822812;29;124199;-75
2023/08/21 10:26:58;;;;;;;;;;;;;;;30.20;46.95;102260.03;4829962;29;123993;-75
2023/08/21 10:29:25;;;;;;;;;;;;;;;30.25;47.02;102252.16;4832108;29;119422;-75
2023/08/21 10:32:05;;;;;;;;;;;;;;;30.32;47.17;102258.72;4832368;29;118749;-75
2023/08/21 10:34:34;;;;;;;;;;;;;;;30.38;46.97;102258.06;4834880;29;124185;-75
2023/08/21 10:37:07;;;;;;;;;;;;;;;30.40;46.79;102250.56;4834219;29;124722;-75
2023/08/21 10:39:37;;;;;;;;;;;;;;;30.43;46.75;102250.22;4820579;29;120786;-75
2023/08/21 10:42:13;;;;;;;;;;;;;;;30.49;46.82;102258.78;4848109;29;120509;-75
2023/08/21 10:44:41;;;;;;;;;;;;;;;30.52;46.85;102251.13;4823870;29;124173;-75
2023/08/21 10:47:30;;;;;;;;;;;;;;;30.58;46.80;102246.84;4831377;29;122867;-75
2023/08/21 10:49:59;;;;;;;;;;;;;;;30.66;46.86;102252.34;4832471;29;119992;-75
2023/08/21 10:52:27;;;;;;;;;;;;;;;30.73;46.69;102256.13;4833329;29;119526;-75
2023/08/21 10:54:55;;;;;;;;;;;;;;;30.78;46.79;102264.69;4831063;29;123770;-75
2023/08/21 10:57:23;;;;;;;;;;;;;;;30.86;46.81;102264.69;4843222;28;123578;-75
2023/08/21 10:59:54;;;;;;;;;;;;;;;30.93;46.50;102256.69;4830683;29;119381;-75
2023/08/21 11:02:22;;;;;;;;;;;;;;;30.99;46.54;102266.09;4835616;29;119190;-75
2023/08/21 11:04:49;;;;;;;;;;;;;;;30.96;46.38;102266.44;4832190;29;123555;-75
2023/08/21 11:07:16;;;;;;;;;;;;;;;30.92;46.24;102270.53;4828322;29;124212;-75
2023/08/21 11:09:43;;;;;;;;;;;;;;;30.90;46.20;102278.03;4828206;29;119744;-75
2023/08/21 11:12:11;;;;;;;;;;;;;;;30.88;46.05;102274.63;4831719;29;119261;-75
2023/08/21 11:14:39;;;;;;;;;;;;;;;30.85;46.07;102271.19;4822857;29;124478;-75
2023/08/21 11:17:07;;;;;;;;;;;;;;;30.83;46.12;102267.75;4826247;29;123984;-76
2023/08/21 11:19:34;;;;;;;;;;;;;;;30.86;46.30;102267.41;4831345;29;118603;-75
2023/08/21 11:22:06;;;;;;;;;;;;;;;30.90;46.28;102256.16;4829573;29;118493;-75
2023/08/21 11:24:32;;;;;;;;;;;;;;;30.96;45.99;102260.97;4824467;29;123759;-75
2023/08/21 11:26:59;;;;;;;;;;;;;;;30.97;45.89;102259.94;4824085;29;124062;-75
2023/08/21 11:29:27;;;;;;;;;;;;;;;31.01;45.97;102255.84;4821633;29;120454;-75
2023/08/21 11:31:54;;;;;;;;;;;;;;;31.08;46.15;102256.88;4819632;29;119248;-76
2023/08/21 11:34:21;;;;;;;;;;;;;;;31.17;45.94;102252.25;4823537;29;124242;-75
2023/08/21 11:36:50;;;;;;;;;;;;;;;31.21;46.04;102246.28;4823761;29;124050;-76
2023/08/21 11:39:17;;;;;;;;;;;;;;;31.23;45.97;102241.47;4825065;29;120466;-75
2023/08/21 11:41:56;;;;;;;;;;;;;;;31.28;45.73;102242.84;4829265;29;119210;-75
2023/08/21 11:44:23;;;;;;;;;;;;;;;31.31;45.73;102247.97;4833269;29;123261;-75
2023/08/21 11:46:50;;;;;;;;;;;;;;;31.38;45.97;102238.03;4844684;29;123345;-76
2023/08/21 11:49:18;;;;;;;;;;;;;;;31.44;45.90;102242.84;4834437;29;118476;-75
2023/08/21 11:51:46;;;;;;;;;;;;;;;31.49;45.71;102240.44;4843184;29;119694;-75
2023/08/21 11:54:13;;;;;;;;;;;;;;;31.59;45.74;102241.13;4829663;29;124806;-76
2023/08/21 11:56:42;;;;;;;;;;;;;;;31.71;45.64;102240.75;4828427;29;124932;-76
2023/08/21 11:59:09;;;;;;;;;;;;;;;31.79;45.84;102235.25;4826831;29;120061;-75
2023/08/21 12:01:36;;;;;;;;;;;;;;;31.85;45.62;102233.69;4834898;29;118553;-75
2023/08/21 12:04:13;;;;;;;;;;;;;;;31.90;45.50;102234.00;4835126;29;125079;-75
2023/08/21 12:06:43;;;;;;;;;;;;;;;31.94;45.55;102233.47;4824148;29;123781;-75
2023/08/21 12:09:10;;;;;;;;;;;;;;;31.96;45.24;102236.03;4827441;29;118944;-75
2023/08/21 12:11:40;;;;;;;;;;;;;;;32.03;45.18;102230.75;4829946;29;118914;-75
2023/08/21 12:14:07;;;;;;;;;;;;;;;32.11;45.63;102227.97;4830670;29;124478;-75
2023/08/21 12:16:34;;;;;;;;;;;;;;;32.18;44.99;102231.72;4823406;29;123895;-75
2023/08/21 12:19:03;;;;;;;;;;;;;;;32.20;45.14;102232.38;4827407;29;121199;-75
2023/08/21 12:21:30;;;;;;;;;;;;;;;32.23;45.28;102232.03;4847896;29;120313;-75
2023/08/21 12:23:57;;;;;;;;;;;;;;;32.31;45.05;102234.72;4833629;29;124523;-75
2023/08/21 12:26:24;;;;;;;;;;;;;;;32.42;44.99;102229.84;4829598;29;124814;-75
2023/08/21 12:29:02;;;;;;;;;;;;;;;32.48;45.25;102230.00;4826845;29;118859;-75
2023/08/21 12:31:30;;;;;;;;;;;;;;;32.51;44.76;102229.66;4844784;29;117939;-75